Laredo, TX (78043)

3:56 AM CST on December 26, 2014 (GMT -0600)
Del Mar C | Change Station
CLOSE
Current Station
Personal Weather Station
Location: Laredo, TX
Elevation: 489 ft
Nearby Weather Stations

Elev 489 ft 27.56 °N, 99.48 °W | Updated 30 seconds ago

Partly Cloudy
Partly Cloudy
54.3 °F
Feels Like 54.3 °F
N
0.0
Wind Variable Wind from SSE
Gusts 0.0 mph

Today
High -- | Low -- °F
--% Chance of Precip.
Yesterday
High -- | Low -- °F
Precip. -- in
7:25 AM 5:50 PM
Waxing Crescent, 24% visible
Pressure 29.89 in
Visibility 10.0 miles
Clouds Clear
Dew Point 52 °F
Humidity 92%
Rainfall 0.00 in
Snow Depth Not available.
UV 0 out of 12
Pollen 11.00 out of 12
Air Quality Not available.
Flu Activity Not available.
METAR KAPY 260935Z AUTO 16005KT 10SM CLR 13/11 A2989 RMK AO2 T01330111

More Conditions Fewer Conditions

Pressure 29.89 in
Visibility 10.0 miles
Clouds Clear
Dew Point 52 °F
Humidity 92%
Rainfall 0.00 in
Snow Depth Not available.
UV 0 out of 12
Pollen 11.00 out of 12
Air Quality Not available.
Flu Activity Not available.
METAR KAPY 260935Z AUTO 16005KT 10SM CLR 13/11 A2989 RMK AO2 T01330111

More Conditions Fewer Conditions

10-Day Weather Forecast

Almanac

Astronomy

Dec. 26, 2014 Rise Set
Actual Time
Civil Twilight
Nautical Twilight
Astronomical Twilight
Moon
Length of Visible Light
Length of Day
Tomorrow will be .
, % of the Moon is Illuminated

Today's Extremes

State Highs State Lows

Community

WunderPhotos

Upload Photos

1,780,568 photos uploaded!

WunderBlogs® & News

Nearby

Air Quality

  Air Quality AQ Index Pollutant
Not available.

Snow Depth

Station Depth Elevation

Earthquake Activity

City Distance Mag. Time & Date
Minimum magnitude displayed is 2.5.

Coastal Water Temperatures

Place Temperature

Nearby Weather Stations